Buoy 13516

sailwx.info

Track history (hours):
 
Tides and Currents Weather Stations Pressure Air Temp Water Temp Dewpoint Dewpoint Depression Visibility Wind Speed Wind Dir Waves Ship Positions

Ao Chao Yang 13516

Last reported at 2016-Sep-29 11:11 UTC. Time now 2016-Sep-29 13:37 UTC.
Position N 28°54' W 043°25'.

Length 20 m.

Type: Fishing. MMSI: 412469022.

Water temperature 26.6 ° C

Date/timePositionNaut miles runAvg speedWind from/ knotsBaromVisibWave heightAir tempDewpointWater temp
2016-Sep-29 11:11N 28°54' W 043°25'0 0.4 26.6
2016-Sep-29 10:49N 28°54' W 043°25'0 4.5 26.6
2016-Sep-29 10:44N 28°54' W 043°26'1 0.9 26.6
2016-Sep-29 09:56N 28°53' W 043°25'0 5.7
2016-Sep-29 09:53N 28°53' W 043°25'0 1.6 26.6
2016-Sep-29 09:37N 28°54' W 043°25'0 2.7 26.6
2016-Sep-29 09:31N 28°54' W 043°24'0 0.4 26.6
2016-Sep-29 09:07N 28°54' W 043°25'0 5.5 26.6
2016-Sep-29 09:02N 28°54' W 043°24'0 0.3 26.6
2016-Sep-29 08:16N 28°54' W 043°24'0 0.0 26.6
2016-Sep-29 07:53N 28°54' W 043°24'1 0.5 26.7
2016-Sep-29 06:43N 28°54' W 043°23'0 0.8 26.7
2016-Sep-29 06:37N 28°54' W 043°23'2 1.3 26.7
2016-Sep-29 04:53N 28°55' W 043°21'0 0.0 26.7
2016-Sep-29 04:52N 28°55' W 043°21'0 0.1 26.7
2016-Sep-29 01:47N 28°55' W 043°21'0 0.0 26.7
2016-Sep-29 01:05N 28°55' W 043°21'0 2.5 26.7
2016-Sep-29 01:01N 28°55' W 043°21'0 0.6 26.7
2016-Sep-29 00:16N 28°55' W 043°20'0 0.0 26.7
2016-Sep-29 00:11N 28°55' W 043°20'0 0.4 26.7
2016-Sep-28 23:28N 28°55' W 043°21'0 0.0 26.7
2016-Sep-28 23:23N 28°55' W 043°21'0 1.2 26.7
2016-Sep-28 23:20N 28°55' W 043°21'0 0.9 26.7
2016-Sep-28 22:47N 28°56' W 043°21'0 7.1 26.8
2016-Sep-28 22:43N 28°56' W 043°20'0 3.2 26.8
2016-Sep-28 22:34N 28°56' W 043°21'1 0.5 26.8
2016-Sep-28 21:16N 28°56' W 043°20'0 0.6 26.8
2016-Sep-28 20:59N 28°56' W 043°20'0 0.0 26.8
2016-Sep-28 20:41N 28°56' W 043°20'0 1.8 26.9
2016-Sep-28 20:37N 28°56' W 043°20'0 5.7 26.9
2016-Sep-28 20:32N 28°56' W 043°19'0 0.0 26.9
2016-Sep-28 19:35N 28°56' W 043°19'0 0.5 26.9
2016-Sep-28 18:56N 28°56' W 043°19'0 0.0 26.9
2016-Sep-28 18:10N 28°56' W 043°19'0 0.1 26.9
2016-Sep-28 16:34N 28°56' W 043°19'0 0.2 26.9
2016-Sep-28 14:35N 28°56' W 043°19'0 0.1 26.9
2016-Sep-28 13:52N 28°56' W 043°19'0 0.7 26.8
2016-Sep-28 13:41N 28°56' W 043°19'0 0.0 26.8
2016-Sep-28 12:56N 28°56' W 043°19'0 1.9 26.7
2016-Sep-28 12:50N 28°56' W 043°19'0 0.0 26.7
2016-Sep-28 12:47N 28°56' W 043°19'1 1.0 26.7
2016-Sep-28 12:04N 28°56' W 043°18'0 0.0 26.7
2016-Sep-28 11:16N 28°56' W 043°18'0 1.0 26.7
2016-Sep-28 10:55N 28°56' W 043°18'0 6.1 26.7
2016-Sep-28 10:52N 28°57' W 043°18'1 0.8 26.7
2016-Sep-28 09:53N 28°56' W 043°17'0 0.2 26.7
2016-Sep-28 09:11N 28°56' W 043°17'0 0.4 26.7
2016-Sep-28 08:52N 28°56' W 043°17'0 0.9 26.7
2016-Sep-28 08:43N 28°56' W 043°17'0 0.2 26.7
2016-Sep-28 08:23N 28°56' W 043°17'0 0.0 26.7
2016-Sep-28 08:17N 28°56' W 043°17'0 2.1 26.7
2016-Sep-28 08:11N 28°56' W 043°17'0 0.0 26.7
2016-Sep-28 07:35N 28°56' W 043°17'0 0.5 26.7
2016-Sep-28 07:11N 28°56' W 043°17'0 0.3 26.7
2016-Sep-28 06:50N 28°56' W 043°17'1 0.5 26.7
2016-Sep-28 05:02N 28°57' W 043°16'0 0.0 26.8
2016-Sep-28 01:28N 28°57' W 043°16'0 2.6 26.9
2016-Sep-28 01:22N 28°57' W 043°17'0 0.4 26.9
2016-Sep-28 00:34N 28°57' W 043°16'0 0.1 26.9
2016-Sep-27 23:49N 28°57' W 043°16'1 3.9 26.9
2016-Sep-27 23:41N 28°57' W 043°16'0 0.0 26.9
2016-Sep-27 23:16N 28°57' W 043°16'0 1.2 26.9
2016-Sep-27 22:55N 28°57' W 043°16'0 0.9 26.9
2016-Sep-27 22:28N 28°58' W 043°16'0 0.1 27.0
2016-Sep-27 21:40N 28°58' W 043°16'1 5.9 27.0
2016-Sep-27 21:34N 28°58' W 043°15'0 0.0 27.0
2016-Sep-27 20:53N 28°58' W 043°15'1 5.9 27.2
2016-Sep-27 20:44N 28°58' W 043°16'0 0.4 27.2
2016-Sep-27 19:52N 28°58' W 043°17'0 0.2 27.3
2016-Sep-27 19:11N 28°59' W 043°17'0 0.6 27.4
2016-Sep-27 18:22N 28°58' W 043°16'111.6 27.4
2016-Sep-27 18:19N 28°58' W 043°17'0 0.3 27.4
2016-Sep-27 16:46N 28°59' W 043°17'0 5.9 27.2
2016-Sep-27 16:44N 28°59' W 043°17'1 0.2 27.2
2016-Sep-27 14:11N 28°59' W 043°18'0 1.6 26.9
2016-Sep-27 14:07N 28°59' W 043°18'0 0.3 26.9
2016-Sep-27 13:19N 28°59' W 043°17'0 0.0 26.8
2016-Sep-27 12:34N 28°59' W 043°17'0 2.0 26.7
2016-Sep-27 12:23N 28°59' W 043°18'0 0.0 26.7
2016-Sep-27 11:34N 28°59' W 043°18'0 0.0 26.6
2016-Sep-27 11:31N 28°59' W 043°18'0 0.4 26.6
2016-Sep-27 11:08N 28°59' W 043°17'1 0.7 26.6
2016-Sep-27 10:26N 28°59' W 043°17'0 0.2 26.6
2016-Sep-27 09:32N 28°59' W 043°17'0 0.3 26.6
2016-Sep-27 07:49N 28°58' W 043°17'0 0.5 26.6
2016-Sep-27 07:04N 28°59' W 043°17'0 2.8 26.6
2016-Sep-27 06:56N 28°59' W 043°17'0 0.0 26.6
2016-Sep-27 05:23N 28°59' W 043°17'1 0.2 26.6
2016-Sep-27 01:43N 28°59' W 043°17'0 0.0 26.7
2016-Sep-27 00:55N 28°59' W 043°17'0 0.1 26.7
2016-Sep-27 00:10N 28°59' W 043°17'1 4.7 26.7
2016-Sep-27 00:01N 28°60' W 043°18'0 0.0 26.7
2016-Sep-26 23:11N 28°60' W 043°18'0 0.0 26.7
2016-Sep-26 23:10N 28°60' W 043°18'0 0.0 26.7
2016-Sep-26 22:43N 28°60' W 043°18'0 0.0 26.7
2016-Sep-26 22:40N 28°60' W 043°18'0 5.2 26.7
2016-Sep-26 22:37N 28°60' W 043°18'0 0.0 26.7
2016-Sep-26 22:28N 28°60' W 043°18'0 0.0 26.7
2016-Sep-26 22:10N 28°60' W 043°18'0 0.6 26.7
2016-Sep-26 21:56N 29°00' W 043°18'0 0.0 26.7
2016-Sep-26 21:05N 29°00' W 043°18'0 3.2 26.7
2016-Sep-26 20:56N 29°00' W 043°18'0 0.0 26.7
2016-Sep-26 20:26N 29°00' W 043°18'0 6.9 26.7
2016-Sep-26 20:22N 29°00' W 043°19'0 0.0 26.8
2016-Sep-26 19:23N 29°00' W 043°19'0 0.4 26.8
2016-Sep-26 18:43N 29°00' W 043°19'0 0.5 26.8
2016-Sep-26 18:34N 29°00' W 043°19'1 9.5 26.8
2016-Sep-26 18:29N 29°00' W 043°20'0 0.2 26.8
2016-Sep-26 16:56N 28°60' W 043°20'0 0.0 26.9
2016-Sep-26 14:29N 28°60' W 043°20'110.9 26.8
2016-Sep-26 14:25N 28°59' W 043°20'0 0.0 26.7
2016-Sep-26 13:40N 28°59' W 043°20'0 0.0 26.7
2016-Sep-26 13:38N 28°59' W 043°20'0 0.0 26.7
2016-Sep-26 12:53N 28°59' W 043°20'0 2.3 26.7
2016-Sep-26 12:46N 28°59' W 043°20'0 2.9 26.7
2016-Sep-26 12:41N 28°60' W 043°20'0 0.0
2016-Sep-26 11:56N 28°60' W 043°20'0 0.0 26.6
2016-Sep-26 11:19N 28°60' W 043°20'0 1.3 26.6
2016-Sep-26 11:11N 28°60' W 043°20'0 2.4 26.6
2016-Sep-26 11:07N 28°60' W 043°20'0 0.0 26.6
2016-Sep-26 10:49N 28°60' W 043°20'0 0.3 26.6
2016-Sep-26 09:50N 28°59' W 043°20'1 6.3 26.6
2016-Sep-26 09:44N 28°60' W 043°20'1 2.9 26.6
2016-Sep-26 09:32N 28°60' W 043°20'0 0.0 26.6
2016-Sep-26 09:01N 28°60' W 043°20'0 0.0 26.6
2016-Sep-26 08:11N 28°60' W 043°20'0 0.3 26.6
2016-Sep-26 07:56N 28°59' W 043°20'025.4 26.6
2016-Sep-26 07:55N 28°60' W 043°20'0 0.0 26.6
2016-Sep-26 07:28N 28°60' W 043°20'0 1.6 26.6
2016-Sep-26 07:26N 28°60' W 043°20'0 0.0 26.6
2016-Sep-26 07:11N 28°60' W 043°20'2 1.1 26.6
2016-Sep-26 05:26N 29°02' W 043°20'0 0.0 26.6
2016-Sep-26 01:10N 29°02' W 043°20'0 0.0
2016-Sep-26 00:31N 29°02' W 043°20'0 0.0 26.6
2016-Sep-26 00:26N 29°02' W 043°20'0 2.4 26.6
2016-Sep-26 00:23N 29°02' W 043°20'1 1.3 26.6
2016-Sep-25 23:37N 29°03' W 043°20'0 0.0 26.6
2016-Sep-25 22:52N 29°03' W 043°20'0 0.0 26.6
2016-Sep-25 22:41N 29°03' W 043°20'1 2.9 26.6
2016-Sep-25 22:25N 29°04' W 043°19'0 0.2 26.6
2016-Sep-25 20:50N 29°04' W 043°20'1 6.8 26.6
2016-Sep-25 20:41N 29°05' W 043°19'0 0.0 26.6
2016-Sep-25 19:35N 29°05' W 043°19'0 1.8 26.6
2016-Sep-25 19:29N 29°04' W 043°19'0 1.0 26.6
2016-Sep-25 19:10N 29°05' W 043°19'0 0.2 26.7
2016-Sep-25 18:47N 29°05' W 043°19'0 0.5 26.7
2016-Sep-25 18:41N 29°05' W 043°19'3 0.9 26.7
2016-Sep-25 15:25N 29°08' W 043°19'1 0.3 26.7
2016-Sep-25 13:11N 29°07' W 043°18'0 0.0 26.6
2016-Sep-25 13:10N 29°07' W 043°18'1 0.4 26.6
2016-Sep-25 11:32N 29°08' W 043°18'1 5.7 26.6
2016-Sep-25 11:25N 29°07' W 043°18'0 0.0 26.6
2016-Sep-25 11:11N 29°07' W 043°18'0 0.5 26.6
2016-Sep-25 10:22N 29°08' W 043°17'0 0.0 26.6
2016-Sep-25 10:14N 29°08' W 043°17'0 0.0 26.6
2016-Sep-25 09:56N 29°08' W 043°17'0 0.8 26.6
2016-Sep-25 09:52N 29°08' W 043°17'0 2.2 26.6
2016-Sep-25 09:46N 29°08' W 043°17'0 0.6 26.6
2016-Sep-25 09:31N 29°08' W 043°17'0 0.2 26.6
2016-Sep-25 08:46N 29°08' W 043°17'0 0.5 26.6
2016-Sep-25 08:05N 29°07' W 043°16'0 0.0 26.6
2016-Sep-25 07:53N 29°07' W 043°16'0 1.9 26.6
2016-Sep-25 07:47N 29°08' W 043°16'0 0.0 26.6
2016-Sep-25 07:25N 29°08' W 043°16'0 5.1 26.6
2016-Sep-25 07:20N 29°07' W 043°16'1 0.3 26.6
2016-Sep-25 05:44N 29°08' W 043°16'214.6 26.7
2016-Sep-25 05:37N 29°08' W 043°14'0 0.0 26.7
2016-Sep-25 00:52N 29°08' W 043°14'0 0.0 26.7
2016-Sep-25 00:49N 29°08' W 043°14'0 3.1 26.7
2016-Sep-25 00:44N 29°08' W 043°14'2 1.0 26.7
2016-Sep-24 23:02N 29°09' W 043°13'0 0.0 26.7
2016-Sep-24 21:34N 29°09' W 043°13'0 0.5 26.7
2016-Sep-24 21:20N 29°09' W 043°12'0 1.1 26.7
2016-Sep-24 21:11N 29°09' W 043°13'0 0.2 26.7
2016-Sep-24 19:53N 29°09' W 043°12'0 1.6 26.7
2016-Sep-24 19:47N 29°09' W 043°12'0 1.2 26.7
2016-Sep-24 19:43N 29°09' W 043°12'0 0.6 26.7
2016-Sep-24 19:31N 29°09' W 043°12'0 0.0 26.7
2016-Sep-24 18:56N 29°09' W 043°12'0 4.8 26.8
2016-Sep-24 18:52N 29°09' W 043°12'0 0.0 26.8
2016-Sep-24 17:19N 29°09' W 043°12'0 0.1 26.8
2016-Sep-24 14:13N 29°09' W 043°12'0 0.2
2016-Sep-24 13:32N 29°09' W 043°11'0 0.7 26.7
2016-Sep-24 13:25N 29°09' W 043°12'0 0.0 26.7
2016-Sep-24 11:50N 29°08' W 043°12'1 8.4 26.7
2016-Sep-24 11:46N 29°08' W 043°11'0 0.0 26.7
2016-Sep-24 11:41N 29°08' W 043°11'1 0.3 26.6
2016-Sep-24 09:59N 29°08' W 043°11'0 9.8 26.6
2016-Sep-24 09:56N 29°08' W 043°11'1 0.4 26.6
2016-Sep-24 07:37N 29°08' W 043°10'0 2.4 26.6
2016-Sep-24 07:34N 29°08' W 043°10'2 0.7 26.6
2016-Sep-24 04:14N 29°07' W 043°07'0 0.0 26.7
2016-Sep-24 01:52N 29°07' W 043°07'0 0.0 26.7
2016-Sep-24 01:10N 29°07' W 043°07'0 2.6 26.7
2016-Sep-24 01:05N 29°07' W 043°07'0 0.6 26.7
2016-Sep-24 00:19N 29°07' W 043°07'0 0.4 26.7
2016-Sep-23 23:31N 29°07' W 043°07'0 0.4 26.7
2016-Sep-23 22:32N 29°07' W 043°06'0 0.0 26.7
2016-Sep-23 22:29N 29°07' W 043°06'0 0.0 26.7
2016-Sep-23 22:05N 29°07' W 043°06'0 1.2 26.7
2016-Sep-23 22:02N 29°07' W 043°06'0 0.5 26.7
2016-Sep-23 21:40N 29°08' W 043°06'0 0.3 26.7
2016-Sep-23 20:16N 29°08' W 043°07'0 0.2 26.8
2016-Sep-23 19:56N 29°08' W 043°07'1 0.5 26.8
2016-Sep-23 17:26N 29°07' W 043°06'0 0.0 26.9
2016-Sep-23 17:22N 29°07' W 043°06'0 0.2 26.8
2016-Sep-23 15:49N 29°07' W 043°05'0 0.3 26.8
2016-Sep-23 14:38N 29°07' W 043°05'0 0.0 26.7
2016-Sep-23 13:55N 29°07' W 043°05'0 0.1 26.7
2016-Sep-23 13:01N 29°07' W 043°05'0 1.2 26.6
2016-Sep-23 12:50N 29°06' W 043°05'0 0.0 26.6
2016-Sep-23 12:08N 29°06' W 043°05'0 7.7 26.6
2016-Sep-23 12:05N 29°07' W 043°05'0 0.4 26.6
2016-Sep-23 11:11N 29°06' W 043°05'0 0.0 26.6
2016-Sep-23 10:25N 29°06' W 043°05'0 0.7 26.6
2016-Sep-23 09:44N 29°06' W 043°05'0 2.4 26.6
2016-Sep-23 09:40N 29°06' W 043°04'0 0.2 26.6
2016-Sep-23 08:37N 29°06' W 043°04'0 0.5 26.6
2016-Sep-23 08:28N 29°06' W 043°04'0 0.0 26.6
2016-Sep-23 07:49N 29°06' W 043°04'244.1 26.7
2016-Sep-23 07:46N 29°05' W 043°02'0 0.0 26.7
2016-Sep-23 06:10N 29°05' W 043°02'0 0.0 26.7
2016-Sep-23 06:07N 29°05' W 043°02'1 2.8 26.7
2016-Sep-23 05:56N 29°06' W 043°02'0 0.1 26.7
2016-Sep-23 01:31N 29°06' W 043°02'0 2.2 26.8
2016-Sep-23 01:23N 29°06' W 043°02'0 0.0 26.8
2016-Sep-23 00:40N 29°06' W 043°02'0 0.2 26.8
2016-Sep-22 23:52N 29°05' W 043°02'0 0.0 26.8
2016-Sep-22 23:49N 29°05' W 043°02'0 2.0 26.8
2016-Sep-22 23:41N 29°06' W 043°01'0 0.0 26.8
2016-Sep-22 22:56N 29°06' W 043°01'0 0.9 26.8
2016-Sep-22 22:35N 29°05' W 043°01'0 0.5 26.8
2016-Sep-22 22:04N 29°06' W 043°01'0 0.1 26.8
2016-Sep-22 20:55N 29°06' W 043°01'0 1.4 26.9
2016-Sep-22 20:46N 29°06' W 043°01'0 0.0 26.9
2016-Sep-22 20:26N 29°06' W 043°01'0 0.3 26.9
2016-Sep-22 19:19N 29°06' W 043°01'1 1.1 26.9
2016-Sep-22 18:41N 29°05' W 043°00'0 0.0 26.9
2016-Sep-22 17:41N 29°05' W 043°00'0 0.3 26.9
2016-Sep-22 16:01N 29°05' W 043°00'1 0.2 26.9
2016-Sep-22 12:31N 29°06' W 043°00'0 0.7 26.7
2016-Sep-22 12:26N 29°06' W 043°00'0 0.0 26.7
2016-Sep-22 11:40N 29°06' W 043°00'0 0.1 26.7
2016-Sep-22 10:49N 29°06' W 043°00'0 0.6 26.7
2016-Sep-22 10:29N 29°06' W 043°00'0 2.2 26.7
2016-Sep-22 10:23N 29°05' W 042°60'0 0.2 26.7
2016-Sep-22 08:44N 29°05' W 043°00'0 2.5 26.7
2016-Sep-22 08:38N 29°05' W 043°00'0 0.0 26.7
2016-Sep-22 08:31N 29°05' W 043°00'0 0.0 26.7
2016-Sep-22 07:56N 29°05' W 043°00'0 0.8 26.7
2016-Sep-22 07:26N 29°05' W 042°60'0 0.7 26.7
2016-Sep-22 06:56N 29°05' W 043°00'0 0.6 26.7
2016-Sep-22 06:22N 29°05' W 042°60'0 0.0 26.7
2016-Sep-22 06:17N 29°05' W 042°60'1 0.6 26.7
2016-Sep-22 04:38N 29°04' W 042°59'111.6 26.7
2016-Sep-22 04:32N 29°04' W 042°58'0 0.0 26.7
2016-Sep-22 00:56N 29°04' W 042°58'0 1.0 26.8
2016-Sep-22 00:53N 29°04' W 042°58'0 0.3 26.8
2016-Sep-22 00:11N 29°04' W 042°57'0 0.0
2016-Sep-22 00:05N 29°04' W 042°57'0 0.0 26.8
2016-Sep-21 23:19N 29°04' W 042°57'0 1.4 26.8
2016-Sep-21 23:11N 29°04' W 042°57'0 0.7 26.8
2016-Sep-21 23:01N 29°04' W 042°58'1 1.0 26.8
2016-Sep-21 22:26N 29°04' W 042°57'0 0.0 26.8
2016-Sep-21 22:23N 29°04' W 042°57'0 0.2 26.8
2016-Sep-21 22:01N 29°04' W 042°57'0 1.6 26.8
2016-Sep-21 21:53N 29°04' W 042°57'0 0.0 26.8
2016-Sep-21 21:28N 29°04' W 042°57'0 0.6 26.9
2016-Sep-21 20:52N 29°04' W 042°56'0 0.0 26.9
2016-Sep-21 20:46N 29°04' W 042°56'0 4.4 26.9
2016-Sep-21 20:40N 29°04' W 042°57'0 0.0 26.9
2016-Sep-21 20:22N 29°04' W 042°57'1 1.1 26.9
2016-Sep-21 19:38N 29°04' W 042°56'0 0.0 26.9
2016-Sep-21 19:29N 29°04' W 042°56'0 0.3 26.9
2016-Sep-21 19:10N 29°04' W 042°56'0 0.4 26.9
2016-Sep-21 17:53N 29°04' W 042°55'1 0.2 26.9
2016-Sep-21 14:31N 29°04' W 042°55'0 0.3 26.8
2016-Sep-21 13:43N 29°04' W 042°55'0 0.2 26.8
2016-Sep-21 12:56N 29°04' W 042°55'0 0.2 26.8
2016-Sep-21 11:56N 29°04' W 042°55'0 0.6 26.7
2016-Sep-21 11:10N 29°04' W 042°55'0 0.3 26.7
2016-Sep-21 10:32N 29°04' W 042°55'0 0.0 26.7
2016-Sep-21 09:37N 29°04' W 042°55'0 0.5 26.7
2016-Sep-21 09:31N 29°04' W 042°55'0 0.6 26.7
2016-Sep-21 09:10N 29°04' W 042°55'0 0.8 26.7
2016-Sep-21 09:02N 29°04' W 042°55'0 0.8 26.7
2016-Sep-21 08:56N 29°04' W 042°55'0 2.1 26.7
2016-Sep-21 08:50N 29°04' W 042°55'0 0.0 26.7
2016-Sep-21 08:08N 29°04' W 042°55'0 0.0 26.7
2016-Sep-21 07:55N 29°04' W 042°55'0 0.7 26.7
2016-Sep-21 07:26N 29°03' W 042°55'0 0.2 26.7
2016-Sep-21 06:26N 29°03' W 042°55'2 0.9 26.7
2016-Sep-21 04:43N 29°03' W 042°53'0 0.0 26.7
2016-Sep-21 01:20N 29°03' W 042°53'0 1.9 26.7
2016-Sep-21 01:11N 29°03' W 042°53'0 0.3 26.8
2016-Sep-21 00:26N 29°03' W 042°53'1 0.5 26.8
2016-Sep-20 22:53N 29°03' W 042°52'0 0.2 26.8
2016-Sep-20 22:11N 29°03' W 042°52'0 0.5 26.8
2016-Sep-20 21:56N 29°03' W 042°52'0 0.2 26.8
2016-Sep-20 21:11N 29°03' W 042°52'0 0.5 26.8
2016-Sep-20 21:05N 29°03' W 042°52'0 0.0 26.8
2016-Sep-20 20:34N 29°03' W 042°52'0 0.6 26.8
2016-Sep-20 20:26N 29°03' W 042°52'0 0.2 26.8
2016-Sep-20 20:07N 29°03' W 042°52'0 0.0
2016-Sep-20 19:35N 29°03' W 042°52'0 0.3 26.8
2016-Sep-20 18:05N 29°04' W 042°52'0 0.1 26.9
2016-Sep-20 16:23N 29°04' W 042°52'0 0.2 26.9
2016-Sep-20 14:04N 29°03' W 042°51'0 2.0 26.8
2016-Sep-20 13:56N 29°03' W 042°51'0 0.0 26.8
2016-Sep-20 13:19N 29°03' W 042°51'0 0.0 26.8
2016-Sep-20 13:11N 29°03' W 042°51'0 0.1 26.7
2016-Sep-20 12:20N 29°03' W 042°51'0 2.1 26.7
2016-Sep-20 12:17N 29°03' W 042°51'0 8.8 26.7
2016-Sep-20 12:14N 29°03' W 042°51'0 0.6 26.7
2016-Sep-20 11:31N 29°03' W 042°51'0 3.6 26.7
2016-Sep-20 11:29N 29°03' W 042°51'0 0.0 26.7
2016-Sep-20 10:50N 29°03' W 042°51'0 6.3 26.7
2016-Sep-20 10:46N 29°03' W 042°51'0 0.0 26.7
2016-Sep-20 10:02N 29°03' W 042°51'0 0.8 26.7
2016-Sep-20 09:53N 29°03' W 042°51'0 0.0 26.7
2016-Sep-20 09:38N 29°03' W 042°51'0 0.9 26.7
2016-Sep-20 09:11N 29°03' W 042°51'0 0.2 26.7
2016-Sep-20 08:22N 29°03' W 042°51'0 0.2 26.7
2016-Sep-20 07:56N 29°03' W 042°51'0 0.1 26.7
2016-Sep-20 06:43N 29°03' W 042°51'0 3.4 26.7
2016-Sep-20 06:35N 29°03' W 042°50'1 0.2 26.7
2016-Sep-20 01:38N 29°02' W 042°49'0 5.8 26.7
2016-Sep-20 01:34N 29°02' W 042°49'0 0.0 26.7
2016-Sep-20 00:52N 29°02' W 042°49'0 2.5 26.7
2016-Sep-20 00:47N 29°02' W 042°49'1 0.9 26.7
2016-Sep-19 23:56N 29°02' W 042°48'0 0.3 26.7
2016-Sep-19 23:11N 29°02' W 042°48'0 2.7 26.7
2016-Sep-19 23:05N 29°02' W 042°48'0 0.0 26.7
2016-Sep-19 22:28N 29°02' W 042°48'0 3.7 26.8
2016-Sep-19 22:23N 29°02' W 042°48'0 4.8 26.8
2016-Sep-19 22:19N 29°02' W 042°48'0 0.0 26.8
2016-Sep-19 22:11N 29°02' W 042°48'0 0.0 26.8
2016-Sep-19 21:40N 29°02' W 042°48'0 0.3 26.8
2016-Sep-19 20:35N 29°02' W 042°48'0 0.2 26.9
2016-Sep-19 19:02N 29°02' W 042°48'0 0.0 26.9
2016-Sep-19 18:11N 29°02' W 042°48'0 7.3 26.9
2016-Sep-19 18:10N 29°02' W 042°48'1 0.7 26.9
2016-Sep-19 16:35N 29°02' W 042°49'1 0.4 26.9
2016-Sep-19 13:37N 29°01' W 042°47'1 6.2 26.8
2016-Sep-19 13:29N 29°01' W 042°46'0 0.0 26.8
2016-Sep-19 12:37N 29°01' W 042°46'0 7.3 26.8
2016-Sep-19 12:34N 29°01' W 042°47'0 0.0 26.8
2016-Sep-19 11:56N 29°01' W 042°47'0 1.2 26.8
2016-Sep-19 11:50N 29°01' W 042°47'   26.8
Track history (hours):
 
Tides and Currents Weather Stations Pressure Air Temp Water Temp Dewpoint Dewpoint Depression Visibility Wind Speed Wind Dir Waves Ship Positions

Ao Chao Yang 13516

Last reported at 2016-Sep-29 11:11 UTC. Time now 2016-Sep-29 13:37 UTC.
Position N 28°54' W 043°25'.

Length 20 m.

Type: Fishing. MMSI: 412469022.

Water temperature 26.6 ° C

Date/timePositionNaut miles runAvg speedWind from/ knotsBaromVisibWave heightAir tempDewpointWater temp
2016-Sep-29 11:11N 28°54' W 043°25'0 0.4 26.6
2016-Sep-29 10:49N 28°54' W 043°25'0 4.5 26.6
2016-Sep-29 10:44N 28°54' W 043°26'1 0.9 26.6
2016-Sep-29 09:56N 28°53' W 043°25'0 5.7
2016-Sep-29 09:53N 28°53' W 043°25'0 1.6 26.6
2016-Sep-29 09:37N 28°54' W 043°25'0 2.7 26.6
2016-Sep-29 09:31N 28°54' W 043°24'0 0.4 26.6
2016-Sep-29 09:07N 28°54' W 043°25'0 5.5 26.6
2016-Sep-29 09:02N 28°54' W 043°24'0 0.3 26.6
2016-Sep-29 08:16N 28°54' W 043°24'0 0.0 26.6
2016-Sep-29 07:53N 28°54' W 043°24'1 0.5 26.7
2016-Sep-29 06:43N 28°54' W 043°23'0 0.8 26.7
2016-Sep-29 06:37N 28°54' W 043°23'2 1.3 26.7
2016-Sep-29 04:53N 28°55' W 043°21'0 0.0 26.7
2016-Sep-29 04:52N 28°55' W 043°21'0 0.1 26.7
2016-Sep-29 01:47N 28°55' W 043°21'0 0.0 26.7
2016-Sep-29 01:05N 28°55' W 043°21'0 2.5 26.7
2016-Sep-29 01:01N 28°55' W 043°21'0 0.6 26.7
2016-Sep-29 00:16N 28°55' W 043°20'0 0.0 26.7
2016-Sep-29 00:11N 28°55' W 043°20'0 0.4 26.7
2016-Sep-28 23:28N 28°55' W 043°21'0 0.0 26.7
2016-Sep-28 23:23N 28°55' W 043°21'0 1.2 26.7
2016-Sep-28 23:20N 28°55' W 043°21'0 0.9 26.7
2016-Sep-28 22:47N 28°56' W 043°21'0 7.1 26.8
2016-Sep-28 22:43N 28°56' W 043°20'0 3.2 26.8
2016-Sep-28 22:34N 28°56' W 043°21'1 0.5 26.8
2016-Sep-28 21:16N 28°56' W 043°20'0 0.6 26.8
2016-Sep-28 20:59N 28°56' W 043°20'0 0.0 26.8
2016-Sep-28 20:41N 28°56' W 043°20'0 1.8 26.9
2016-Sep-28 20:37N 28°56' W 043°20'0 5.7 26.9
2016-Sep-28 20:32N 28°56' W 043°19'0 0.0 26.9
2016-Sep-28 19:35N 28°56' W 043°19'0 0.5 26.9
2016-Sep-28 18:56N 28°56' W 043°19'0 0.0 26.9
2016-Sep-28 18:10N 28°56' W 043°19'0 0.1 26.9
2016-Sep-28 16:34N 28°56' W 043°19'0 0.2 26.9
2016-Sep-28 14:35N 28°56' W 043°19'0 0.1 26.9
2016-Sep-28 13:52N 28°56' W 043°19'0 0.7 26.8
2016-Sep-28 13:41N 28°56' W 043°19'0 0.0 26.8
2016-Sep-28 12:56N 28°56' W 043°19'0 1.9 26.7
2016-Sep-28 12:50N 28°56' W 043°19'0 0.0 26.7
2016-Sep-28 12:47N 28°56' W 043°19'1 1.0 26.7
2016-Sep-28 12:04N 28°56' W 043°18'0 0.0 26.7
2016-Sep-28 11:16N 28°56' W 043°18'0 1.0 26.7
2016-Sep-28 10:55N 28°56' W 043°18'0 6.1 26.7
2016-Sep-28 10:52N 28°57' W 043°18'1 0.8 26.7
2016-Sep-28 09:53N 28°56' W 043°17'0 0.2 26.7
2016-Sep-28 09:11N 28°56' W 043°17'0 0.4 26.7
2016-Sep-28 08:52N 28°56' W 043°17'0 0.9 26.7
2016-Sep-28 08:43N 28°56' W 043°17'0 0.2 26.7
2016-Sep-28 08:23N 28°56' W 043°17'0 0.0 26.7
2016-Sep-28 08:17N 28°56' W 043°17'0 2.1 26.7
2016-Sep-28 08:11N 28°56' W 043°17'0 0.0 26.7
2016-Sep-28 07:35N 28°56' W 043°17'0 0.5 26.7
2016-Sep-28 07:11N 28°56' W 043°17'0 0.3 26.7
2016-Sep-28 06:50N 28°56' W 043°17'1 0.5 26.7
2016-Sep-28 05:02N 28°57' W 043°16'0 0.0 26.8
2016-Sep-28 01:28N 28°57' W 043°16'0 2.6 26.9
2016-Sep-28 01:22N 28°57' W 043°17'0 0.4 26.9
2016-Sep-28 00:34N 28°57' W 043°16'0 0.1 26.9
2016-Sep-27 23:49N 28°57' W 043°16'1 3.9 26.9
2016-Sep-27 23:41N 28°57' W 043°16'0 0.0 26.9
2016-Sep-27 23:16N 28°57' W 043°16'0 1.2 26.9
2016-Sep-27 22:55N 28°57' W 043°16'0 0.9 26.9
2016-Sep-27 22:28N 28°58' W 043°16'0 0.1 27.0
2016-Sep-27 21:40N 28°58' W 043°16'1 5.9 27.0
2016-Sep-27 21:34N 28°58' W 043°15'0 0.0 27.0
2016-Sep-27 20:53N 28°58' W 043°15'1 5.9 27.2
2016-Sep-27 20:44N 28°58' W 043°16'0 0.4 27.2
2016-Sep-27 19:52N 28°58' W 043°17'0 0.2 27.3
2016-Sep-27 19:11N 28°59' W 043°17'0 0.6 27.4
2016-Sep-27 18:22N 28°58' W 043°16'111.6 27.4
2016-Sep-27 18:19N 28°58' W 043°17'0 0.3 27.4
2016-Sep-27 16:46N 28°59' W 043°17'0 5.9 27.2
2016-Sep-27 16:44N 28°59' W 043°17'1 0.2 27.2
2016-Sep-27 14:11N 28°59' W 043°18'0 1.6 26.9
2016-Sep-27 14:07N 28°59' W 043°18'0 0.3 26.9
2016-Sep-27 13:19N 28°59' W 043°17'0 0.0 26.8
2016-Sep-27 12:34N 28°59' W 043°17'0 2.0 26.7
2016-Sep-27 12:23N 28°59' W 043°18'0 0.0 26.7
2016-Sep-27 11:34N 28°59' W 043°18'0 0.0 26.6
2016-Sep-27 11:31N 28°59' W 043°18'0 0.4 26.6
2016-Sep-27 11:08N 28°59' W 043°17'1 0.7 26.6
2016-Sep-27 10:26N 28°59' W 043°17'0 0.2 26.6
2016-Sep-27 09:32N 28°59' W 043°17'0 0.3 26.6
2016-Sep-27 07:49N 28°58' W 043°17'0 0.5 26.6
2016-Sep-27 07:04N 28°59' W 043°17'0 2.8 26.6
2016-Sep-27 06:56N 28°59' W 043°17'0 0.0 26.6
2016-Sep-27 05:23N 28°59' W 043°17'1 0.2 26.6
2016-Sep-27 01:43N 28°59' W 043°17'0 0.0 26.7
2016-Sep-27 00:55N 28°59' W 043°17'0 0.1 26.7
2016-Sep-27 00:10N 28°59' W 043°17'1 4.7 26.7
2016-Sep-27 00:01N 28°60' W 043°18'0 0.0 26.7
2016-Sep-26 23:11N 28°60' W 043°18'0 0.0 26.7
2016-Sep-26 23:10N 28°60' W 043°18'0 0.0 26.7
2016-Sep-26 22:43N 28°60' W 043°18'0 0.0 26.7
2016-Sep-26 22:40N 28°60' W 043°18'0 5.2 26.7
2016-Sep-26 22:37N 28°60' W 043°18'0 0.0 26.7
2016-Sep-26 22:28N 28°60' W 043°18'0 0.0 26.7
2016-Sep-26 22:10N 28°60' W 043°18'0 0.6 26.7
2016-Sep-26 21:56N 29°00' W 043°18'0 0.0 26.7
2016-Sep-26 21:05N 29°00' W 043°18'0 3.2 26.7
2016-Sep-26 20:56N 29°00' W 043°18'0 0.0 26.7
2016-Sep-26 20:26N 29°00' W 043°18'0 6.9 26.7
2016-Sep-26 20:22N 29°00' W 043°19'0 0.0 26.8
2016-Sep-26 19:23N 29°00' W 043°19'0 0.4 26.8
2016-Sep-26 18:43N 29°00' W 043°19'0 0.5 26.8
2016-Sep-26 18:34N 29°00' W 043°19'1 9.5 26.8
2016-Sep-26 18:29N 29°00' W 043°20'0 0.2 26.8
2016-Sep-26 16:56N 28°60' W 043°20'0 0.0 26.9
2016-Sep-26 14:29N 28°60' W 043°20'110.9 26.8
2016-Sep-26 14:25N 28°59' W 043°20'0 0.0 26.7
2016-Sep-26 13:40N 28°59' W 043°20'0 0.0 26.7
2016-Sep-26 13:38N 28°59' W 043°20'0 0.0 26.7
2016-Sep-26 12:53N 28°59' W 043°20'0 2.3 26.7
2016-Sep-26 12:46N 28°59' W 043°20'0 2.9 26.7
2016-Sep-26 12:41N 28°60' W 043°20'0 0.0
2016-Sep-26 11:56N 28°60' W 043°20'0 0.0 26.6
2016-Sep-26 11:19N 28°60' W 043°20'0 1.3 26.6
2016-Sep-26 11:11N 28°60' W 043°20'0 2.4 26.6
2016-Sep-26 11:07N 28°60' W 043°20'0 0.0 26.6
2016-Sep-26 10:49N 28°60' W 043°20'0 0.3 26.6
2016-Sep-26 09:50N 28°59' W 043°20'1 6.3 26.6
2016-Sep-26 09:44N 28°60' W 043°20'1 2.9 26.6
2016-Sep-26 09:32N 28°60' W 043°20'0 0.0 26.6
2016-Sep-26 09:01N 28°60' W 043°20'0 0.0 26.6
2016-Sep-26 08:11N 28°60' W 043°20'0 0.3 26.6
2016-Sep-26 07:56N 28°59' W 043°20'025.4 26.6
2016-Sep-26 07:55N 28°60' W 043°20'0 0.0 26.6
2016-Sep-26 07:28N 28°60' W 043°20'0 1.6 26.6
2016-Sep-26 07:26N 28°60' W 043°20'0 0.0 26.6
2016-Sep-26 07:11N 28°60' W 043°20'2 1.1 26.6
2016-Sep-26 05:26N 29°02' W 043°20'0 0.0 26.6
2016-Sep-26 01:10N 29°02' W 043°20'0 0.0
2016-Sep-26 00:31N 29°02' W 043°20'0 0.0 26.6
2016-Sep-26 00:26N 29°02' W 043°20'0 2.4 26.6
2016-Sep-26 00:23N 29°02' W 043°20'1 1.3 26.6
2016-Sep-25 23:37N 29°03' W 043°20'0 0.0 26.6
2016-Sep-25 22:52N 29°03' W 043°20'0 0.0 26.6
2016-Sep-25 22:41N 29°03' W 043°20'1 2.9 26.6
2016-Sep-25 22:25N 29°04' W 043°19'0 0.2 26.6
2016-Sep-25 20:50N 29°04' W 043°20'1 6.8 26.6
2016-Sep-25 20:41N 29°05' W 043°19'0 0.0 26.6
2016-Sep-25 19:35N 29°05' W 043°19'0 1.8 26.6
2016-Sep-25 19:29N 29°04' W 043°19'0 1.0 26.6
2016-Sep-25 19:10N 29°05' W 043°19'0 0.2 26.7
2016-Sep-25 18:47N 29°05' W 043°19'0 0.5 26.7
2016-Sep-25 18:41N 29°05' W 043°19'3 0.9 26.7
2016-Sep-25 15:25N 29°08' W 043°19'1 0.3 26.7
2016-Sep-25 13:11N 29°07' W 043°18'0 0.0 26.6
2016-Sep-25 13:10N 29°07' W 043°18'1 0.4 26.6
2016-Sep-25 11:32N 29°08' W 043°18'1 5.7 26.6
2016-Sep-25 11:25N 29°07' W 043°18'0 0.0 26.6
2016-Sep-25 11:11N 29°07' W 043°18'0 0.5 26.6
2016-Sep-25 10:22N 29°08' W 043°17'0 0.0 26.6
2016-Sep-25 10:14N 29°08' W 043°17'0 0.0 26.6
2016-Sep-25 09:56N 29°08' W 043°17'0 0.8 26.6
2016-Sep-25 09:52N 29°08' W 043°17'0 2.2 26.6
2016-Sep-25 09:46N 29°08' W 043°17'0 0.6 26.6
2016-Sep-25 09:31N 29°08' W 043°17'0 0.2 26.6
2016-Sep-25 08:46N 29°08' W 043°17'0 0.5 26.6
2016-Sep-25 08:05N 29°07' W 043°16'0 0.0 26.6
2016-Sep-25 07:53N 29°07' W 043°16'0 1.9 26.6
2016-Sep-25 07:47N 29°08' W 043°16'0 0.0 26.6
2016-Sep-25 07:25N 29°08' W 043°16'0 5.1 26.6
2016-Sep-25 07:20N 29°07' W 043°16'1 0.3 26.6
2016-Sep-25 05:44N 29°08' W 043°16'214.6 26.7
2016-Sep-25 05:37N 29°08' W 043°14'0 0.0 26.7
2016-Sep-25 00:52N 29°08' W 043°14'0 0.0 26.7
2016-Sep-25 00:49N 29°08' W 043°14'0 3.1 26.7
2016-Sep-25 00:44N 29°08' W 043°14'2 1.0 26.7
2016-Sep-24 23:02N 29°09' W 043°13'0 0.0 26.7
2016-Sep-24 21:34N 29°09' W 043°13'0 0.5 26.7
2016-Sep-24 21:20N 29°09' W 043°12'0 1.1 26.7
2016-Sep-24 21:11N 29°09' W 043°13'0 0.2 26.7
2016-Sep-24 19:53N 29°09' W 043°12'0 1.6 26.7
2016-Sep-24 19:47N 29°09' W 043°12'0 1.2 26.7
2016-Sep-24 19:43N 29°09' W 043°12'0 0.6 26.7
2016-Sep-24 19:31N 29°09' W 043°12'0 0.0 26.7
2016-Sep-24 18:56N 29°09' W 043°12'0 4.8 26.8
2016-Sep-24 18:52N 29°09' W 043°12'0 0.0 26.8
2016-Sep-24 17:19N 29°09' W 043°12'0 0.1 26.8
2016-Sep-24 14:13N 29°09' W 043°12'0 0.2
2016-Sep-24 13:32N 29°09' W 043°11'0 0.7 26.7
2016-Sep-24 13:25N 29°09' W 043°12'0 0.0 26.7
2016-Sep-24 11:50N 29°08' W 043°12'1 8.4 26.7
2016-Sep-24 11:46N 29°08' W 043°11'0 0.0 26.7
2016-Sep-24 11:41N 29°08' W 043°11'1 0.3 26.6
2016-Sep-24 09:59N 29°08' W 043°11'0 9.8 26.6
2016-Sep-24 09:56N 29°08' W 043°11'1 0.4 26.6
2016-Sep-24 07:37N 29°08' W 043°10'0 2.4 26.6
2016-Sep-24 07:34N 29°08' W 043°10'2 0.7 26.6
2016-Sep-24 04:14N 29°07' W 043°07'0 0.0 26.7
2016-Sep-24 01:52N 29°07' W 043°07'0 0.0 26.7
2016-Sep-24 01:10N 29°07' W 043°07'0 2.6 26.7
2016-Sep-24 01:05N 29°07' W 043°07'0 0.6 26.7
2016-Sep-24 00:19N 29°07' W 043°07'0 0.4 26.7
2016-Sep-23 23:31N 29°07' W 043°07'0 0.4 26.7
2016-Sep-23 22:32N 29°07' W 043°06'0 0.0 26.7
2016-Sep-23 22:29N 29°07' W 043°06'0 0.0 26.7
2016-Sep-23 22:05N 29°07' W 043°06'0 1.2 26.7
2016-Sep-23 22:02N 29°07' W 043°06'0 0.5 26.7
2016-Sep-23 21:40N 29°08' W 043°06'0 0.3 26.7
2016-Sep-23 20:16N 29°08' W 043°07'0 0.2 26.8
2016-Sep-23 19:56N 29°08' W 043°07'1 0.5 26.8
2016-Sep-23 17:26N 29°07' W 043°06'0 0.0 26.9
2016-Sep-23 17:22N 29°07' W 043°06'0 0.2 26.8
2016-Sep-23 15:49N 29°07' W 043°05'0 0.3 26.8
2016-Sep-23 14:38N 29°07' W 043°05'0 0.0 26.7
2016-Sep-23 13:55N 29°07' W 043°05'0 0.1 26.7
2016-Sep-23 13:01N 29°07' W 043°05'0 1.2 26.6
2016-Sep-23 12:50N 29°06' W 043°05'0 0.0 26.6
2016-Sep-23 12:08N 29°06' W 043°05'0 7.7 26.6
2016-Sep-23 12:05N 29°07' W 043°05'0 0.4 26.6
2016-Sep-23 11:11N 29°06' W 043°05'0 0.0 26.6
2016-Sep-23 10:25N 29°06' W 043°05'0 0.7 26.6
2016-Sep-23 09:44N 29°06' W 043°05'0 2.4 26.6
2016-Sep-23 09:40N 29°06' W 043°04'0 0.2 26.6
2016-Sep-23 08:37N 29°06' W 043°04'0 0.5 26.6
2016-Sep-23 08:28N 29°06' W 043°04'0 0.0 26.6
2016-Sep-23 07:49N 29°06' W 043°04'244.1 26.7
2016-Sep-23 07:46N 29°05' W 043°02'0 0.0 26.7
2016-Sep-23 06:10N 29°05' W 043°02'0 0.0 26.7
2016-Sep-23 06:07N 29°05' W 043°02'1 2.8 26.7
2016-Sep-23 05:56N 29°06' W 043°02'0 0.1 26.7
2016-Sep-23 01:31N 29°06' W 043°02'0 2.2 26.8
2016-Sep-23 01:23N 29°06' W 043°02'0 0.0 26.8
2016-Sep-23 00:40N 29°06' W 043°02'0 0.2 26.8
2016-Sep-22 23:52N 29°05' W 043°02'0 0.0 26.8
2016-Sep-22 23:49N 29°05' W 043°02'0 2.0 26.8
2016-Sep-22 23:41N 29°06' W 043°01'0 0.0 26.8
2016-Sep-22 22:56N 29°06' W 043°01'0 0.9 26.8
2016-Sep-22 22:35N 29°05' W 043°01'0 0.5 26.8
2016-Sep-22 22:04N 29°06' W 043°01'0 0.1 26.8
2016-Sep-22 20:55N 29°06' W 043°01'0 1.4 26.9
2016-Sep-22 20:46N 29°06' W 043°01'0 0.0 26.9
2016-Sep-22 20:26N 29°06' W 043°01'0 0.3 26.9
2016-Sep-22 19:19N 29°06' W 043°01'1 1.1 26.9
2016-Sep-22 18:41N 29°05' W 043°00'0 0.0 26.9
2016-Sep-22 17:41N 29°05' W 043°00'0 0.3 26.9
2016-Sep-22 16:01N 29°05' W 043°00'1 0.2 26.9
2016-Sep-22 12:31N 29°06' W 043°00'0 0.7 26.7
2016-Sep-22 12:26N 29°06' W 043°00'0 0.0 26.7
2016-Sep-22 11:40N 29°06' W 043°00'0 0.1 26.7
2016-Sep-22 10:49N 29°06' W 043°00'0 0.6 26.7
2016-Sep-22 10:29N 29°06' W 043°00'0 2.2 26.7
2016-Sep-22 10:23N 29°05' W 042°60'0 0.2 26.7
2016-Sep-22 08:44N 29°05' W 043°00'0 2.5 26.7
2016-Sep-22 08:38N 29°05' W 043°00'0 0.0 26.7
2016-Sep-22 08:31N 29°05' W 043°00'0 0.0 26.7
2016-Sep-22 07:56N 29°05' W 043°00'0 0.8 26.7
2016-Sep-22 07:26N 29°05' W 042°60'0 0.7 26.7
2016-Sep-22 06:56N 29°05' W 043°00'0 0.6 26.7
2016-Sep-22 06:22N 29°05' W 042°60'0 0.0 26.7
2016-Sep-22 06:17N 29°05' W 042°60'1 0.6 26.7
2016-Sep-22 04:38N 29°04' W 042°59'111.6 26.7
2016-Sep-22 04:32N 29°04' W 042°58'0 0.0 26.7
2016-Sep-22 00:56N 29°04' W 042°58'0 1.0 26.8
2016-Sep-22 00:53N 29°04' W 042°58'0 0.3 26.8
2016-Sep-22 00:11N 29°04' W 042°57'0 0.0
2016-Sep-22 00:05N 29°04' W 042°57'0 0.0 26.8
2016-Sep-21 23:19N 29°04' W 042°57'0 1.4 26.8
2016-Sep-21 23:11N 29°04' W 042°57'0 0.7 26.8
2016-Sep-21 23:01N 29°04' W 042°58'1 1.0 26.8
2016-Sep-21 22:26N 29°04' W 042°57'0 0.0 26.8
2016-Sep-21 22:23N 29°04' W 042°57'0 0.2 26.8
2016-Sep-21 22:01N 29°04' W 042°57'0 1.6 26.8
2016-Sep-21 21:53N 29°04' W 042°57'0 0.0 26.8
2016-Sep-21 21:28N 29°04' W 042°57'0 0.6 26.9
2016-Sep-21 20:52N 29°04' W 042°56'0 0.0 26.9
2016-Sep-21 20:46N 29°04' W 042°56'0 4.4 26.9
2016-Sep-21 20:40N 29°04' W 042°57'0 0.0 26.9
2016-Sep-21 20:22N 29°04' W 042°57'1 1.1 26.9
2016-Sep-21 19:38N 29°04' W 042°56'0 0.0 26.9
2016-Sep-21 19:29N 29°04' W 042°56'0 0.3 26.9
2016-Sep-21 19:10N 29°04' W 042°56'0 0.4 26.9
2016-Sep-21 17:53N 29°04' W 042°55'1 0.2 26.9
2016-Sep-21 14:31N 29°04' W 042°55'0 0.3 26.8
2016-Sep-21 13:43N 29°04' W 042°55'0 0.2 26.8
2016-Sep-21 12:56N 29°04' W 042°55'0 0.2 26.8
2016-Sep-21 11:56N 29°04' W 042°55'0 0.6 26.7
2016-Sep-21 11:10N 29°04' W 042°55'0 0.3 26.7
2016-Sep-21 10:32N 29°04' W 042°55'0 0.0 26.7
2016-Sep-21 09:37N 29°04' W 042°55'0 0.5 26.7
2016-Sep-21 09:31N 29°04' W 042°55'0 0.6 26.7
2016-Sep-21 09:10N 29°04' W 042°55'0 0.8 26.7
2016-Sep-21 09:02N 29°04' W 042°55'0 0.8 26.7
2016-Sep-21 08:56N 29°04' W 042°55'0 2.1 26.7
2016-Sep-21 08:50N 29°04' W 042°55'0 0.0 26.7
2016-Sep-21 08:08N 29°04' W 042°55'0 0.0 26.7
2016-Sep-21 07:55N 29°04' W 042°55'0 0.7 26.7
2016-Sep-21 07:26N 29°03' W 042°55'0 0.2 26.7
2016-Sep-21 06:26N 29°03' W 042°55'2 0.9 26.7
2016-Sep-21 04:43N 29°03' W 042°53'0 0.0 26.7
2016-Sep-21 01:20N 29°03' W 042°53'0 1.9 26.7
2016-Sep-21 01:11N 29°03' W 042°53'0 0.3 26.8
2016-Sep-21 00:26N 29°03' W 042°53'1 0.5 26.8
2016-Sep-20 22:53N 29°03' W 042°52'0 0.2 26.8
2016-Sep-20 22:11N 29°03' W 042°52'0 0.5 26.8
2016-Sep-20 21:56N 29°03' W 042°52'0 0.2 26.8
2016-Sep-20 21:11N 29°03' W 042°52'0 0.5 26.8
2016-Sep-20 21:05N 29°03' W 042°52'0 0.0 26.8
2016-Sep-20 20:34N 29°03' W 042°52'0 0.6 26.8
2016-Sep-20 20:26N 29°03' W 042°52'0 0.2 26.8
2016-Sep-20 20:07N 29°03' W 042°52'0 0.0
2016-Sep-20 19:35N 29°03' W 042°52'0 0.3 26.8
2016-Sep-20 18:05N 29°04' W 042°52'0 0.1 26.9
2016-Sep-20 16:23N 29°04' W 042°52'0 0.2 26.9
2016-Sep-20 14:04N 29°03' W 042°51'0 2.0 26.8
2016-Sep-20 13:56N 29°03' W 042°51'0 0.0 26.8
2016-Sep-20 13:19N 29°03' W 042°51'0 0.0 26.8
2016-Sep-20 13:11N 29°03' W 042°51'0 0.1 26.7
2016-Sep-20 12:20N 29°03' W 042°51'0 2.1 26.7
2016-Sep-20 12:17N 29°03' W 042°51'0 8.8 26.7
2016-Sep-20 12:14N 29°03' W 042°51'0 0.6 26.7
2016-Sep-20 11:31N 29°03' W 042°51'0 3.6 26.7
2016-Sep-20 11:29N 29°03' W 042°51'0 0.0 26.7
2016-Sep-20 10:50N 29°03' W 042°51'0 6.3 26.7
2016-Sep-20 10:46N 29°03' W 042°51'0 0.0 26.7
2016-Sep-20 10:02N 29°03' W 042°51'0 0.8 26.7
2016-Sep-20 09:53N 29°03' W 042°51'0 0.0 26.7
2016-Sep-20 09:38N 29°03' W 042°51'0 0.9 26.7
2016-Sep-20 09:11N 29°03' W 042°51'0 0.2 26.7
2016-Sep-20 08:22N 29°03' W 042°51'0 0.2 26.7
2016-Sep-20 07:56N 29°03' W 042°51'0 0.1 26.7
2016-Sep-20 06:43N 29°03' W 042°51'0 3.4 26.7
2016-Sep-20 06:35N 29°03' W 042°50'1 0.2 26.7
2016-Sep-20 01:38N 29°02' W 042°49'0 5.8 26.7
2016-Sep-20 01:34N 29°02' W 042°49'0 0.0 26.7
2016-Sep-20 00:52N 29°02' W 042°49'0 2.5 26.7
2016-Sep-20 00:47N 29°02' W 042°49'1 0.9 26.7
2016-Sep-19 23:56N 29°02' W 042°48'0 0.3 26.7
2016-Sep-19 23:11N 29°02' W 042°48'0 2.7 26.7
2016-Sep-19 23:05N 29°02' W 042°48'0 0.0 26.7
2016-Sep-19 22:28N 29°02' W 042°48'0 3.7 26.8
2016-Sep-19 22:23N 29°02' W 042°48'0 4.8 26.8
2016-Sep-19 22:19N 29°02' W 042°48'0 0.0 26.8
2016-Sep-19 22:11N 29°02' W 042°48'0 0.0 26.8
2016-Sep-19 21:40N 29°02' W 042°48'0 0.3 26.8
2016-Sep-19 20:35N 29°02' W 042°48'0 0.2 26.9
2016-Sep-19 19:02N 29°02' W 042°48'0 0.0 26.9
2016-Sep-19 18:11N 29°02' W 042°48'0 7.3 26.9
2016-Sep-19 18:10N 29°02' W 042°48'1 0.7 26.9
2016-Sep-19 16:35N 29°02' W 042°49'1 0.4 26.9
2016-Sep-19 13:37N 29°01' W 042°47'1 6.2 26.8
2016-Sep-19 13:29N 29°01' W 042°46'0 0.0 26.8
2016-Sep-19 12:37N 29°01' W 042°46'0 7.3 26.8
2016-Sep-19 12:34N 29°01' W 042°47'0 0.0 26.8
2016-Sep-19 11:56N 29°01' W 042°47'0 1.2 26.8
2016-Sep-19 11:50N 29°01' W 042°47'   26.8

Dump ship's entire track history